createdAt,value
2022-10-03T00:00:26.631Z,10.20
2022-10-03T00:03:24.722Z,10.10
2022-10-03T00:06:02.740Z,10.10
2022-10-03T00:08:59.738Z,10.20
2022-10-03T00:11:47.506Z,10.00
2022-10-03T00:14:33.067Z,9.80
2022-10-03T00:17:20.275Z,9.60
2022-10-03T00:20:13.060Z,9.50
2022-10-03T00:22:55.858Z,9.30
2022-10-03T00:25:48.984Z,9.20
2022-10-03T00:28:50.049Z,9.20
2022-10-03T00:31:35.115Z,9.00
2022-10-03T00:34:40.395Z,9.10
2022-10-03T00:37:24.531Z,9.20
2022-10-03T00:40:12.712Z,9.00
2022-10-03T00:42:57.344Z,9.10
2022-10-03T00:45:39.010Z,9.10
2022-10-03T00:48:43.794Z,9.10
2022-10-03T00:51:19.328Z,9.10
2022-10-03T00:54:17.000Z,9.20
2022-10-03T00:56:58.098Z,9.20
2022-10-03T00:59:33.671Z,9.20
2022-10-03T01:02:23.099Z,9.20
2022-10-03T01:05:36.502Z,9.20
2022-10-03T01:08:06.085Z,9.20
2022-10-03T01:10:45.886Z,9.00
2022-10-03T01:13:57.773Z,8.90
2022-10-03T01:16:52.364Z,8.80
2022-10-03T01:19:49.032Z,8.70
2022-10-03T01:22:35.573Z,8.50
2022-10-03T01:25:08.445Z,8.30
2022-10-03T01:28:01.071Z,8.20
2022-10-03T01:30:34.886Z,8.10
2022-10-03T01:33:24.096Z,8.20
2022-10-03T01:35:57.035Z,8.20
2022-10-03T01:38:41.913Z,8.10
2022-10-03T01:41:27.531Z,8.10
2022-10-03T01:44:09.354Z,8.10
2022-10-03T01:46:40.473Z,8.20
2022-10-03T01:49:25.903Z,8.40
2022-10-03T01:52:03.958Z,8.50
2022-10-03T01:54:39.996Z,8.50
2022-10-03T01:57:18.658Z,8.50
2022-10-03T01:59:48.635Z,8.30
2022-10-03T02:02:43.587Z,8.20
2022-10-03T02:05:18.278Z,8.20
2022-10-03T02:08:03.873Z,8.20
2022-10-03T02:10:44.521Z,8.10
2022-10-03T02:13:30.357Z,8.20
2022-10-03T02:16:15.638Z,8.30
2022-10-03T02:19:06.045Z,8.30
2022-10-03T02:21:45.662Z,8.30
2022-10-03T02:24:15.227Z,8.40
2022-10-03T02:27:06.071Z,8.40
2022-10-03T02:29:52.386Z,8.70
2022-10-03T02:32:54.018Z,9.00
2022-10-03T02:35:44.687Z,8.90
2022-10-03T02:38:30.399Z,8.80
2022-10-03T02:41:39.494Z,8.70
2022-10-03T02:44:16.399Z,8.70
2022-10-03T02:46:48.906Z,8.70
2022-10-03T02:49:31.357Z,8.80
2022-10-03T02:52:22.669Z,8.90
2022-10-03T02:55:24.700Z,8.90
2022-10-03T02:57:57.704Z,8.90
2022-10-03T03:00:56.611Z,8.90
2022-10-03T03:03:40.497Z,9.00
2022-10-03T03:06:44.851Z,9.00
2022-10-03T03:09:25.975Z,9.00
2022-10-03T03:12:06.392Z,9.00
2022-10-03T03:15:10.422Z,9.10
2022-10-03T03:17:46.434Z,9.10
2022-10-03T03:20:22.447Z,9.10
2022-10-03T03:22:49.206Z,9.20
2022-10-03T03:25:34.895Z,9.20
2022-10-03T03:28:24.766Z,9.30
2022-10-03T03:31:15.188Z,9.50
2022-10-03T03:33:44.832Z,9.70
2022-10-03T03:36:35.303Z,9.70
2022-10-03T03:39:28.555Z,9.80
2022-10-03T03:42:12.391Z,10.00
2022-10-03T03:45:12.039Z,10.20
2022-10-03T03:48:15.916Z,10.20
2022-10-03T03:51:11.555Z,10.20
2022-10-03T03:54:23.287Z,10.20
2022-10-03T03:57:11.233Z,10.30
2022-10-03T04:00:12.124Z,10.20
2022-10-03T04:02:57.810Z,10.20
2022-10-03T04:05:28.318Z,10.20
2022-10-03T04:08:25.920Z,10.10
2022-10-03T04:10:57.175Z,10.20
2022-10-03T04:13:27.120Z,10.10
2022-10-03T04:16:12.436Z,10.00
2022-10-03T04:19:00.138Z,10.00
2022-10-03T04:21:33.186Z,9.80
2022-10-03T04:24:21.991Z,9.70
2022-10-03T04:27:09.633Z,9.50
2022-10-03T04:29:56.910Z,9.50
2022-10-03T04:32:49.763Z,9.40
2022-10-03T04:35:46.647Z,9.40
2022-10-03T04:38:21.300Z,9.40
2022-10-03T04:41:05.554Z,9.40
2022-10-03T04:43:42.015Z,9.40
2022-10-03T04:46:36.958Z,9.40
2022-10-03T04:49:12.125Z,9.40
2022-10-03T04:51:47.030Z,9.40
2022-10-03T04:54:44.533Z,9.50
2022-10-03T04:57:47.536Z,9.60
2022-10-03T05:00:41.889Z,9.60
2022-10-03T05:03:33.802Z,9.60
2022-10-03T05:06:06.226Z,9.60
2022-10-03T05:08:49.865Z,9.50
2022-10-03T05:11:25.928Z,9.50
2022-10-03T05:14:09.116Z,9.40
2022-10-03T05:16:50.979Z,9.40
2022-10-03T05:19:51.001Z,9.40
2022-10-03T05:22:31.299Z,9.50
2022-10-03T05:25:22.696Z,9.70
2022-10-03T05:28:04.720Z,10.10
2022-10-03T05:30:40.744Z,10.20
2022-10-03T05:33:23.102Z,10.40
2022-10-03T05:36:12.128Z,10.50
2022-10-03T05:39:00.863Z,10.60
2022-10-03T05:41:38.482Z,10.70
2022-10-03T05:44:28.610Z,10.60
2022-10-03T05:47:31.130Z,10.60
2022-10-03T05:50:28.490Z,10.70
2022-10-03T05:53:21.265Z,10.80
2022-10-03T05:56:15.647Z,10.90
2022-10-03T05:58:48.298Z,10.90
2022-10-03T06:01:33.034Z,10.80
2022-10-03T06:04:33.059Z,10.80
2022-10-03T06:07:30.600Z,10.70
2022-10-03T06:10:18.369Z,10.70
2022-10-03T06:13:06.903Z,10.60
2022-10-03T06:15:38.538Z,10.40
2022-10-03T06:18:23.826Z,10.40
2022-10-03T06:20:59.888Z,10.30
2022-10-03T06:23:58.054Z,10.20
2022-10-03T06:26:51.530Z,10.10
2022-10-03T06:29:54.517Z,10.10
2022-10-03T06:32:48.580Z,9.90
2022-10-03T06:35:24.285Z,9.80
2022-10-03T06:38:03.144Z,9.70
2022-10-03T06:40:48.379Z,9.70
2022-10-03T06:43:45.930Z,9.70
2022-10-03T06:46:24.897Z,9.70
2022-10-03T06:49:16.588Z,9.80
2022-10-03T06:52:02.307Z,9.70
2022-10-03T06:55:04.569Z,9.80
2022-10-03T06:57:54.531Z,9.90
2022-10-03T07:00:52.568Z,9.90
2022-10-03T07:03:42.870Z,9.90
2022-10-03T07:06:18.322Z,10.00
2022-10-03T07:09:03.384Z,10.00
2022-10-03T07:11:44.153Z,10.10
2022-10-03T07:14:16.882Z,10.20
2022-10-03T07:17:05.702Z,10.30
2022-10-03T07:19:50.682Z,10.40
2022-10-03T07:22:50.160Z,10.50
2022-10-03T07:25:54.735Z,10.60
2022-10-03T07:28:50.375Z,10.60
2022-10-03T07:31:58.887Z,10.60
2022-10-03T07:34:43.874Z,10.70
2022-10-03T07:38:00.461Z,10.70
2022-10-03T07:40:45.791Z,10.70
2022-10-03T07:43:15.707Z,10.70
2022-10-03T07:46:07.290Z,10.80
2022-10-03T07:49:01.278Z,10.80
2022-10-03T07:51:38.226Z,10.90
2022-10-03T07:54:24.654Z,10.90
2022-10-03T07:57:09.903Z,11.00
2022-10-03T07:59:46.511Z,11.00
2022-10-03T08:02:28.751Z,11.00
2022-10-03T08:05:11.474Z,11.00
2022-10-03T08:08:19.935Z,11.20
2022-10-03T08:11:21.892Z,11.40
2022-10-03T08:14:33.210Z,11.70
2022-10-03T08:17:38.147Z,12.00
2022-10-03T08:20:23.506Z,12.20
2022-10-03T08:23:04.396Z,12.30
2022-10-03T08:26:09.128Z,12.30
2022-10-03T08:29:21.167Z,12.30
2022-10-03T08:32:18.496Z,12.60
2022-10-03T08:35:04.107Z,12.80
2022-10-03T08:38:12.506Z,13.10
2022-10-03T08:41:17.223Z,13.30
2022-10-03T08:44:08.334Z,13.80
2022-10-03T08:46:55.220Z,14.00
2022-10-03T08:49:51.899Z,13.90
2022-10-03T08:52:41.807Z,14.30
2022-10-03T08:55:46.587Z,14.80
2022-10-03T08:58:22.636Z,15.30
2022-10-03T09:01:00.735Z,15.70
2022-10-03T09:04:02.540Z,16.00
2022-10-03T09:07:05.204Z,16.30
2022-10-03T09:10:07.635Z,16.60
2022-10-03T09:12:53.475Z,16.90
2022-10-03T09:15:43.446Z,17.20
2022-10-03T09:18:41.565Z,17.20
2022-10-03T09:21:50.121Z,17.70
2022-10-03T09:25:05.277Z,17.50
2022-10-03T09:27:40.237Z,17.80
2022-10-03T09:30:51.471Z,17.60
2022-10-03T09:33:33.324Z,17.30
2022-10-03T09:36:36.595Z,17.80
2022-10-03T09:39:25.152Z,17.70
2022-10-03T09:41:57.861Z,17.70
2022-10-03T09:45:02.215Z,17.70
2022-10-03T09:48:18.187Z,17.90
2022-10-03T09:51:21.950Z,17.90
2022-10-03T09:53:48.950Z,17.60
2022-10-03T09:56:40.603Z,17.80
2022-10-03T09:59:12.132Z,17.60
2022-10-03T10:01:54.002Z,17.70
2022-10-03T10:04:57.540Z,17.90
2022-10-03T10:07:47.408Z,17.80
2022-10-03T10:10:45.115Z,18.00
2022-10-03T10:14:07.142Z,18.20
2022-10-03T10:16:48.275Z,18.10
2022-10-03T10:19:52.463Z,18.30
2022-10-03T10:23:08.123Z,18.80
2022-10-03T10:25:38.002Z,19.20
2022-10-03T10:28:14.168Z,19.60
2022-10-03T10:30:49.815Z,19.90
2022-10-03T10:33:47.323Z,20.00
2022-10-03T10:36:51.109Z,19.90
2022-10-03T10:39:42.362Z,20.10
2022-10-03T10:42:46.976Z,19.80
2022-10-03T10:45:57.028Z,19.50
2022-10-03T10:49:03.524Z,19.20
2022-10-03T10:51:51.807Z,19.30
2022-10-03T10:54:49.762Z,19.30
2022-10-03T10:57:40.587Z,19.60
2022-10-03T11:00:35.644Z,19.70
2022-10-03T11:03:40.048Z,19.90
2022-10-03T11:06:31.465Z,19.90
2022-10-03T11:09:10.313Z,19.20
2022-10-03T11:11:55.582Z,19.50
2022-10-03T11:15:06.741Z,19.90
2022-10-03T11:17:42.426Z,19.90
2022-10-03T11:20:30.636Z,20.00
2022-10-03T11:23:25.130Z,19.90
2022-10-03T11:26:25.943Z,19.30
2022-10-03T11:29:05.041Z,19.20
2022-10-03T11:32:09.592Z,19.20
2022-10-03T11:35:09.848Z,19.60
2022-10-03T11:37:42.336Z,19.70
2022-10-03T11:40:28.372Z,20.00
2022-10-03T11:43:07.037Z,20.00
2022-10-03T11:45:46.534Z,19.80
2022-10-03T11:48:55.408Z,19.60
2022-10-03T11:51:24.867Z,19.30
2022-10-03T11:54:07.607Z,19.80
2022-10-03T11:57:02.725Z,19.80
2022-10-03T11:59:32.691Z,19.90
2022-10-03T12:02:14.374Z,20.20
2022-10-03T12:04:59.817Z,20.00
2022-10-03T12:08:06.948Z,20.00
2022-10-03T12:11:01.353Z,19.90
2022-10-03T12:13:40.372Z,20.10
2022-10-03T12:16:21.440Z,20.10
2022-10-03T12:18:48.271Z,20.20
2022-10-03T12:21:23.150Z,20.30
2022-10-03T12:24:05.828Z,20.20
2022-10-03T12:28:46.673Z,20.00
2022-10-03T12:31:29.206Z,20.00
2022-10-03T12:34:03.762Z,19.50
2022-10-03T12:36:38.803Z,18.90
2022-10-03T12:39:19.312Z,18.50
2022-10-03T12:42:10.955Z,18.40
2022-10-03T12:45:54.727Z,18.50
2022-10-03T12:48:58.946Z,18.70
2022-10-03T12:51:53.070Z,18.80
2022-10-03T12:54:43.426Z,18.90
2022-10-03T12:57:39.730Z,19.00
2022-10-03T13:00:27.718Z,19.10
2022-10-03T13:03:27.667Z,18.90
2022-10-03T13:05:58.266Z,18.90
2022-10-03T13:08:43.416Z,18.80
2022-10-03T13:11:27.843Z,18.80
2022-10-03T13:14:13.558Z,18.70
2022-10-03T13:16:54.352Z,18.50
2022-10-03T13:19:30.778Z,18.60
2022-10-03T13:22:33.222Z,18.50
2022-10-03T13:25:15.866Z,18.50
2022-10-03T13:28:01.667Z,18.40
2022-10-03T13:30:47.863Z,18.30
2022-10-03T13:33:21.270Z,17.90
2022-10-03T13:35:58.704Z,17.80
2022-10-03T13:38:26.467Z,17.90
2022-10-03T13:41:36.246Z,17.90
2022-10-03T13:44:13.920Z,17.60
2022-10-03T13:46:54.554Z,17.50
2022-10-03T13:49:38.498Z,17.60
2022-10-03T13:52:36.154Z,17.80
2022-10-03T13:55:06.053Z,17.90
2022-10-03T13:57:54.855Z,17.90
2022-10-03T14:00:25.148Z,18.00
2022-10-03T14:03:13.848Z,18.00
2022-10-03T14:05:59.751Z,18.00
2022-10-03T14:08:45.855Z,17.90
2022-10-03T14:11:35.131Z,17.70
2022-10-03T14:14:11.130Z,17.70
2022-10-03T14:16:54.603Z,17.40
2022-10-03T14:19:24.224Z,17.30
2022-10-03T14:22:05.946Z,17.30
2022-10-03T14:24:43.121Z,17.30
2022-10-03T14:27:14.192Z,17.30
2022-10-03T14:30:03.078Z,17.20
2022-10-03T14:32:57.490Z,17.10
2022-10-03T14:35:40.635Z,17.00
2022-10-03T14:38:16.661Z,17.00
2022-10-03T14:40:55.920Z,17.10
2022-10-03T14:43:45.325Z,17.00
2022-10-03T14:46:15.306Z,17.00
2022-10-03T14:48:49.954Z,16.80
2022-10-03T14:51:25.996Z,16.60
2022-10-03T14:54:02.585Z,16.40
2022-10-03T14:56:34.846Z,16.30
2022-10-03T14:59:11.290Z,16.10
2022-10-03T15:01:49.465Z,15.90
2022-10-03T15:04:39.249Z,15.70
2022-10-03T15:07:07.810Z,15.60
2022-10-03T15:09:41.122Z,15.50
2022-10-03T15:12:13.788Z,15.50
2022-10-03T15:14:53.901Z,15.40
2022-10-03T15:17:24.320Z,15.50
2022-10-03T15:19:59.413Z,15.50
2022-10-03T15:22:40.396Z,15.50
2022-10-03T15:25:26.153Z,15.50
2022-10-03T15:27:55.647Z,15.50
2022-10-03T15:30:31.979Z,15.40
2022-10-03T15:33:24.629Z,15.50
2022-10-03T15:35:59.544Z,15.40
2022-10-03T15:38:35.575Z,15.30
2022-10-03T15:41:28.150Z,15.30
2022-10-03T15:44:33.609Z,15.20
2022-10-03T15:47:06.363Z,15.10
2022-10-03T15:49:48.999Z,15.00
2022-10-03T15:52:21.274Z,14.90
2022-10-03T15:55:11.020Z,14.80
2022-10-03T15:57:50.277Z,14.70
2022-10-03T16:00:24.691Z,14.50
2022-10-03T16:03:00.500Z,14.30
2022-10-03T16:05:27.878Z,14.10
2022-10-03T16:07:58.399Z,13.90
2022-10-03T16:10:41.367Z,13.60
2022-10-03T16:13:59.250Z,13.30
2022-10-03T16:16:36.961Z,13.20
2022-10-03T16:19:33.691Z,13.10
2022-10-03T16:22:19.055Z,13.10
2022-10-03T16:25:04.263Z,13.10
2022-10-03T16:27:36.948Z,13.10
2022-10-03T16:30:09.762Z,12.90
2022-10-03T16:33:08.626Z,12.60
2022-10-03T16:35:35.458Z,12.50
2022-10-03T16:38:06.474Z,12.30
2022-10-03T16:40:37.911Z,12.10
2022-10-03T16:43:12.487Z,12.00
2022-10-03T16:45:46.544Z,11.80
2022-10-03T16:48:40.185Z,11.80
2022-10-03T16:51:18.782Z,11.70
2022-10-03T16:53:48.818Z,11.80
2022-10-03T16:56:19.041Z,11.60
2022-10-03T16:58:53.251Z,11.50
2022-10-03T17:01:27.237Z,11.40
2022-10-03T17:04:16.012Z,11.40
2022-10-03T17:06:48.415Z,11.60
2022-10-03T17:09:28.090Z,11.50
2022-10-03T17:12:00.868Z,11.40
2022-10-03T17:14:39.377Z,11.20
2022-10-03T17:17:45.143Z,11.10
2022-10-03T17:20:16.224Z,10.90
2022-10-03T17:23:11.191Z,10.60
2022-10-03T17:26:06.463Z,10.40
2022-10-03T17:28:56.739Z,10.30
2022-10-03T17:31:34.423Z,10.10
2022-10-03T17:34:21.318Z,10.00
2022-10-03T17:36:51.246Z,9.90
2022-10-03T17:39:42.608Z,9.80
2022-10-03T17:42:19.281Z,9.70
2022-10-03T17:45:01.407Z,9.60
2022-10-03T17:47:55.673Z,9.50
2022-10-03T17:50:36.772Z,9.40
2022-10-03T17:53:05.062Z,9.30
2022-10-03T17:55:41.227Z,9.40
2022-10-03T17:58:20.335Z,9.30
2022-10-03T18:00:56.322Z,9.20
2022-10-03T18:03:46.222Z,9.10
2022-10-03T18:06:38.381Z,9.00
2022-10-03T18:09:40.725Z,8.90
2022-10-03T18:12:20.827Z,8.90
2022-10-03T18:15:06.151Z,8.80
2022-10-03T18:17:54.672Z,8.70
2022-10-03T18:20:48.748Z,8.60
2022-10-03T18:23:55.092Z,8.60
2022-10-03T18:26:37.491Z,8.50
2022-10-03T18:29:23.634Z,8.40
2022-10-03T18:32:16.549Z,8.40
2022-10-03T18:34:52.754Z,8.30
2022-10-03T18:37:28.968Z,8.30
2022-10-03T18:39:58.426Z,8.30
2022-10-03T18:42:29.852Z,8.30
2022-10-03T18:44:58.748Z,8.20
2022-10-03T18:47:41.168Z,8.10
2022-10-03T18:50:26.994Z,8.10
2022-10-03T18:53:16.894Z,8.10
2022-10-03T18:55:48.771Z,8.00
2022-10-03T18:58:27.075Z,7.90
2022-10-03T19:01:07.596Z,7.90
2022-10-03T19:03:57.053Z,8.10
2022-10-03T19:06:29.627Z,7.90
2022-10-03T19:09:16.126Z,7.90
2022-10-03T19:12:04.745Z,7.80
2022-10-03T19:15:03.686Z,7.80
2022-10-03T19:17:42.607Z,7.70
2022-10-03T19:20:18.401Z,7.70
2022-10-03T19:22:59.851Z,7.60
2022-10-03T19:25:28.179Z,7.60
2022-10-03T19:28:01.123Z,7.60
2022-10-03T19:30:30.670Z,7.60
2022-10-03T19:33:14.123Z,7.50
2022-10-03T19:35:47.723Z,7.60
2022-10-03T19:38:14.636Z,7.60
2022-10-03T19:41:21.235Z,7.50
2022-10-03T19:43:50.241Z,7.40
2022-10-03T19:46:26.203Z,7.40
2022-10-03T19:49:11.554Z,7.50
2022-10-03T19:51:38.838Z,7.40
2022-10-03T19:54:14.118Z,7.30
2022-10-03T19:56:41.186Z,7.30
2022-10-03T19:59:18.518Z,7.30
2022-10-03T20:01:46.966Z,7.40
2022-10-03T20:04:18.972Z,7.30
2022-10-03T20:06:49.990Z,7.30
2022-10-03T20:09:25.143Z,7.20
2022-10-03T20:11:56.184Z,7.20
2022-10-03T20:14:31.948Z,7.30
2022-10-03T20:17:05.166Z,7.30
2022-10-03T20:19:54.857Z,7.20
2022-10-03T20:22:28.338Z,7.20
2022-10-03T20:24:55.943Z,7.20
2022-10-03T20:27:38.341Z,7.30
2022-10-03T20:30:23.039Z,7.20
2022-10-03T20:32:51.203Z,7.10
2022-10-03T20:35:51.547Z,7.10
2022-10-03T20:38:34.467Z,7.00
2022-10-03T20:41:19.775Z,6.90
2022-10-03T20:44:11.162Z,6.90
2022-10-03T20:46:45.291Z,7.00
2022-10-03T20:49:24.078Z,6.90
2022-10-03T20:51:53.772Z,6.80
2022-10-03T20:54:47.514Z,6.80
2022-10-03T20:57:19.119Z,6.80
2022-10-03T20:59:46.064Z,6.90
2022-10-03T21:02:31.451Z,6.80
2022-10-03T21:04:58.301Z,6.80
2022-10-03T21:07:54.226Z,7.00
2022-10-03T21:10:28.834Z,6.90
2022-10-03T21:13:00.110Z,6.80
2022-10-03T21:15:50.992Z,6.80
2022-10-03T21:18:34.152Z,6.80
2022-10-03T21:21:19.534Z,6.80
2022-10-03T21:24:16.915Z,6.80
2022-10-03T21:27:05.163Z,6.80
2022-10-03T21:29:35.790Z,6.80
2022-10-03T21:32:20.491Z,6.90
2022-10-03T21:35:05.671Z,7.00
2022-10-03T21:37:59.789Z,6.90
2022-10-03T21:40:51.612Z,6.90
2022-10-03T21:43:57.218Z,6.90
2022-10-03T21:46:48.755Z,6.90
2022-10-03T21:49:30.671Z,6.90
2022-10-03T21:52:44.784Z,6.80
2022-10-03T21:55:11.615Z,6.70
2022-10-03T21:58:03.270Z,6.60
2022-10-03T22:01:03.948Z,6.50
2022-10-03T22:03:54.147Z,6.60
2022-10-03T22:06:44.432Z,6.50
2022-10-03T22:09:15.810Z,6.40
2022-10-03T22:11:45.792Z,6.50
2022-10-03T22:14:24.107Z,6.40
2022-10-03T22:16:53.998Z,6.40
2022-10-03T22:19:34.011Z,6.40
2022-10-03T22:22:06.400Z,6.20
2022-10-03T22:24:52.957Z,6.20
2022-10-03T22:27:32.031Z,6.10
2022-10-03T22:30:01.968Z,6.10
2022-10-03T22:32:35.354Z,6.10
2022-10-03T22:35:54.511Z,6.10
2022-10-03T22:38:28.081Z,6.00
2022-10-03T22:41:00.119Z,6.00
2022-10-03T22:43:28.750Z,5.90
2022-10-03T22:45:58.827Z,5.90
2022-10-03T22:48:31.119Z,5.80
2022-10-03T22:50:59.848Z,5.90
2022-10-03T22:53:32.267Z,5.80
2022-10-03T22:56:02.103Z,6.10
2022-10-03T22:58:31.097Z,6.00
2022-10-03T23:01:01.051Z,5.90
2022-10-03T23:03:34.310Z,5.90
2022-10-03T23:06:23.017Z,5.80
2022-10-03T23:09:11.482Z,5.80
2022-10-03T23:11:40.839Z,5.70
2022-10-03T23:14:21.955Z,5.70
2022-10-03T23:16:57.415Z,5.60
2022-10-03T23:20:05.671Z,5.60
2022-10-03T23:22:35.983Z,5.60
2022-10-03T23:25:07.118Z,5.60
2022-10-03T23:28:09.455Z,5.60
2022-10-03T23:30:36.344Z,5.60
2022-10-03T23:33:03.319Z,5.60
2022-10-03T23:35:44.218Z,5.50
2022-10-03T23:38:37.575Z,5.50
2022-10-03T23:41:15.392Z,5.60
2022-10-03T23:43:42.225Z,5.50
2022-10-03T23:46:13.592Z,5.50
2022-10-03T23:48:46.478Z,5.50
2022-10-03T23:51:18.315Z,5.40
2022-10-03T23:53:52.443Z,5.40
2022-10-03T23:56:22.054Z,5.40
2022-10-03T23:59:17.632Z,5.40
